sensor_id;sensor_type;location;lat;lon;timestamp;temperature;humidity
26107;DHT22;13866;50.748;12.630;2022-09-09T00:02:20;12.50;99.90
26107;DHT22;13866;50.748;12.630;2022-09-09T00:07:48;12.40;99.90
26107;DHT22;13866;50.748;12.630;2022-09-09T00:10:30;12.40;99.90
26107;DHT22;13866;50.748;12.630;2022-09-09T00:15:59;12.30;99.90
26107;DHT22;13866;50.748;12.630;2022-09-09T00:18:51;12.20;99.90
26107;DHT22;13866;50.748;12.630;2022-09-09T00:21:18;12.20;99.90
26107;DHT22;13866;50.748;12.630;2022-09-09T00:23:48;12.20;99.90
26107;DHT22;13866;50.748;12.630;2022-09-09T00:31:31;12.00;99.90
26107;DHT22;13866;50.748;12.630;2022-09-09T00:34:05;12.00;99.90
26107;DHT22;13866;50.748;12.630;2022-09-09T00:36:35;11.90;99.90
26107;DHT22;13866;50.748;12.630;2022-09-09T00:39:03;11.80;99.90
26107;DHT22;13866;50.748;12.630;2022-09-09T00:44:35;11.90;99.90
26107;DHT22;13866;50.748;12.630;2022-09-09T00:55:28;11.80;99.90
26107;DHT22;13866;50.748;12.630;2022-09-09T00:57:59;11.90;99.90
26107;DHT22;13866;50.748;12.630;2022-09-09T01:05:52;12.40;99.90
26107;DHT22;13866;50.748;12.630;2022-09-09T01:11:13;12.70;99.90
26107;DHT22;13866;50.748;12.630;2022-09-09T01:13:42;12.80;99.90
26107;DHT22;13866;50.748;12.630;2022-09-09T01:16:10;12.80;99.90
26107;DHT22;13866;50.748;12.630;2022-09-09T01:18:49;12.90;99.90
26107;DHT22;13866;50.748;12.630;2022-09-09T01:26:28;12.80;99.90
26107;DHT22;13866;50.748;12.630;2022-09-09T01:28:55;12.70;99.90
26107;DHT22;13866;50.748;12.630;2022-09-09T01:31:42;12.70;99.90
26107;DHT22;13866;50.748;12.630;2022-09-09T01:34:12;12.80;99.90
26107;DHT22;13866;50.748;12.630;2022-09-09T01:36:46;12.80;99.90
26107;DHT22;13866;50.748;12.630;2022-09-09T01:39:17;12.80;99.90
26107;DHT22;13866;50.748;12.630;2022-09-09T01:41:43;12.90;99.90
26107;DHT22;13866;50.748;12.630;2022-09-09T01:44:09;12.90;99.90
26107;DHT22;13866;50.748;12.630;2022-09-09T01:46:35;12.90;99.90
26107;DHT22;13866;50.748;12.630;2022-09-09T01:49:02;13.00;99.90
26107;DHT22;13866;50.748;12.630;2022-09-09T01:51:29;13.10;99.90
26107;DHT22;13866;50.748;12.630;2022-09-09T01:53:55;13.30;99.90
26107;DHT22;13866;50.748;12.630;2022-09-09T01:56:25;13.40;99.90
26107;DHT22;13866;50.748;12.630;2022-09-09T02:03:53;13.60;99.90
26107;DHT22;13866;50.748;12.630;2022-09-09T02:06:34;13.70;99.90
26107;DHT22;13866;50.748;12.630;2022-09-09T02:09:03;13.70;99.90
26107;DHT22;13866;50.748;12.630;2022-09-09T02:11:30;13.60;99.90
26107;DHT22;13866;50.748;12.630;2022-09-09T02:14:14;13.60;99.90
26107;DHT22;13866;50.748;12.630;2022-09-09T02:16:48;13.70;99.90
26107;DHT22;13866;50.748;12.630;2022-09-09T02:19:41;13.70;99.90
26107;DHT22;13866;50.748;12.630;2022-09-09T02:22:10;13.80;99.90
26107;DHT22;13866;50.748;12.630;2022-09-09T02:24:39;13.80;99.90
26107;DHT22;13866;50.748;12.630;2022-09-09T02:27:07;13.80;99.90
26107;DHT22;13866;50.748;12.630;2022-09-09T02:29:40;13.90;99.90
26107;DHT22;13866;50.748;12.630;2022-09-09T02:32:15;13.90;99.90
26107;DHT22;13866;50.748;12.630;2022-09-09T02:34:48;13.90;99.90
26107;DHT22;13866;50.748;12.630;2022-09-09T02:37:18;13.90;99.90
26107;DHT22;13866;50.748;12.630;2022-09-09T02:39:44;13.90;99.90
26107;DHT22;13866;50.748;12.630;2022-09-09T02:42:10;13.90;99.90
26107;DHT22;13866;50.748;12.630;2022-09-09T02:44:35;13.90;99.90
26107;DHT22;13866;50.748;12.630;2022-09-09T02:50:11;13.90;99.90
26107;DHT22;13866;50.748;12.630;2022-09-09T02:58:20;13.90;99.90
26107;DHT22;13866;50.748;12.630;2022-09-09T03:00:49;13.90;99.90
26107;DHT22;13866;50.748;12.630;2022-09-09T03:03:16;13.90;99.90
26107;DHT22;13866;50.748;12.630;2022-09-09T03:05:43;13.90;99.90
26107;DHT22;13866;50.748;12.630;2022-09-09T03:08:09;13.80;99.90
26107;DHT22;13866;50.748;12.630;2022-09-09T03:10:35;13.70;99.90
26107;DHT22;13866;50.748;12.630;2022-09-09T03:13:02;13.60;99.90
26107;DHT22;13866;50.748;12.630;2022-09-09T03:15:31;13.60;99.90
26107;DHT22;13866;50.748;12.630;2022-09-09T03:17:57;13.60;99.90
26107;DHT22;13866;50.748;12.630;2022-09-09T03:20:25;13.70;99.90
26107;DHT22;13866;50.748;12.630;2022-09-09T03:22:52;13.60;99.90
26107;DHT22;13866;50.748;12.630;2022-09-09T03:25:18;13.60;99.90
26107;DHT22;13866;50.748;12.630;2022-09-09T03:27:43;13.40;99.90
26107;DHT22;13866;50.748;12.630;2022-09-09T03:30:09;13.50;99.90
26107;DHT22;13866;50.748;12.630;2022-09-09T03:32:35;13.50;99.90
26107;DHT22;13866;50.748;12.630;2022-09-09T03:35:00;13.50;99.90
26107;DHT22;13866;50.748;12.630;2022-09-09T03:37:26;13.50;99.90
26107;DHT22;13866;50.748;12.630;2022-09-09T03:39:52;13.50;99.90
26107;DHT22;13866;50.748;12.630;2022-09-09T03:42:19;13.40;99.90
26107;DHT22;13866;50.748;12.630;2022-09-09T03:44:48;13.40;99.90
26107;DHT22;13866;50.748;12.630;2022-09-09T03:47:17;13.30;99.90
26107;DHT22;13866;50.748;12.630;2022-09-09T03:49:43;13.20;99.90
26107;DHT22;13866;50.748;12.630;2022-09-09T03:52:09;13.10;99.90
26107;DHT22;13866;50.748;12.630;2022-09-09T03:54:35;13.10;99.90
26107;DHT22;13866;50.748;12.630;2022-09-09T03:57:01;13.10;99.90
26107;DHT22;13866;50.748;12.630;2022-09-09T03:59:27;13.10;99.90
26107;DHT22;13866;50.748;12.630;2022-09-09T04:01:53;13.10;99.90
26107;DHT22;13866;50.748;12.630;2022-09-09T04:04:19;13.10;99.90
26107;DHT22;13866;50.748;12.630;2022-09-09T04:06:45;13.10;99.90
26107;DHT22;13866;50.748;12.630;2022-09-09T04:09:11;13.10;99.90
26107;DHT22;13866;50.748;12.630;2022-09-09T04:11:36;13.10;99.90
26107;DHT22;13866;50.748;12.630;2022-09-09T04:14:02;13.10;99.90
26107;DHT22;13866;50.748;12.630;2022-09-09T04:16:29;13.10;99.90
26107;DHT22;13866;50.748;12.630;2022-09-09T04:18:54;13.00;99.90
26107;DHT22;13866;50.748;12.630;2022-09-09T04:21:21;13.00;99.90
26107;DHT22;13866;50.748;12.630;2022-09-09T04:23:46;13.00;99.90
26107;DHT22;13866;50.748;12.630;2022-09-09T04:26:12;13.10;99.90
26107;DHT22;13866;50.748;12.630;2022-09-09T04:28:37;13.10;99.90
26107;DHT22;13866;50.748;12.630;2022-09-09T04:31:08;13.10;99.90
26107;DHT22;13866;50.748;12.630;2022-09-09T04:33:34;13.10;99.90
26107;DHT22;13866;50.748;12.630;2022-09-09T04:36:00;13.10;99.90
26107;DHT22;13866;50.748;12.630;2022-09-09T04:38:26;13.20;99.90
26107;DHT22;13866;50.748;12.630;2022-09-09T04:40:52;13.20;99.90
26107;DHT22;13866;50.748;12.630;2022-09-09T04:43:19;13.30;99.90
26107;DHT22;13866;50.748;12.630;2022-09-09T04:45:47;13.30;99.90
26107;DHT22;13866;50.748;12.630;2022-09-09T04:48:13;13.20;99.90
26107;DHT22;13866;50.748;12.630;2022-09-09T04:50:39;13.30;99.90
26107;DHT22;13866;50.748;12.630;2022-09-09T04:53:06;13.20;99.90
26107;DHT22;13866;50.748;12.630;2022-09-09T04:55:32;13.20;99.90
26107;DHT22;13866;50.748;12.630;2022-09-09T04:58:06;13.30;99.90
26107;DHT22;13866;50.748;12.630;2022-09-09T05:00:33;13.30;99.90
26107;DHT22;13866;50.748;12.630;2022-09-09T05:03:06;13.30;99.90
26107;DHT22;13866;50.748;12.630;2022-09-09T05:05:35;13.40;99.90
26107;DHT22;13866;50.748;12.630;2022-09-09T05:08:09;13.40;99.90
26107;DHT22;13866;50.748;12.630;2022-09-09T05:10:37;13.50;99.90
26107;DHT22;13866;50.748;12.630;2022-09-09T05:13:03;13.50;99.90
26107;DHT22;13866;50.748;12.630;2022-09-09T05:15:30;13.50;99.90
26107;DHT22;13866;50.748;12.630;2022-09-09T05:17:59;13.50;99.90
26107;DHT22;13866;50.748;12.630;2022-09-09T05:20:26;13.50;99.90
26107;DHT22;13866;50.748;12.630;2022-09-09T05:22:53;13.60;99.90
26107;DHT22;13866;50.748;12.630;2022-09-09T05:25:19;13.60;99.90
26107;DHT22;13866;50.748;12.630;2022-09-09T05:27:45;13.60;99.90
26107;DHT22;13866;50.748;12.630;2022-09-09T05:30:10;13.70;99.90
26107;DHT22;13866;50.748;12.630;2022-09-09T05:32:36;13.80;99.90
26107;DHT22;13866;50.748;12.630;2022-09-09T05:35:02;13.80;99.90
26107;DHT22;13866;50.748;12.630;2022-09-09T05:37:28;13.90;99.90
26107;DHT22;13866;50.748;12.630;2022-09-09T05:39:55;13.90;99.90
26107;DHT22;13866;50.748;12.630;2022-09-09T05:42:20;14.00;99.90
26107;DHT22;13866;50.748;12.630;2022-09-09T05:44:46;14.10;99.90
26107;DHT22;13866;50.748;12.630;2022-09-09T05:47:12;14.20;99.90
26107;DHT22;13866;50.748;12.630;2022-09-09T05:49:37;14.30;99.90
26107;DHT22;13866;50.748;12.630;2022-09-09T05:52:03;14.40;99.90
26107;DHT22;13866;50.748;12.630;2022-09-09T05:54:29;14.40;99.90
26107;DHT22;13866;50.748;12.630;2022-09-09T05:56:55;14.40;99.90
26107;DHT22;13866;50.748;12.630;2022-09-09T05:59:20;14.50;99.90
26107;DHT22;13866;50.748;12.630;2022-09-09T06:01:48;14.60;99.90
26107;DHT22;13866;50.748;12.630;2022-09-09T06:04:13;14.70;99.90
26107;DHT22;13866;50.748;12.630;2022-09-09T06:06:39;14.90;99.90
26107;DHT22;13866;50.748;12.630;2022-09-09T06:09:08;15.00;99.90
26107;DHT22;13866;50.748;12.630;2022-09-09T06:11:36;15.10;99.90
26107;DHT22;13866;50.748;12.630;2022-09-09T06:14:02;15.20;99.90
26107;DHT22;13866;50.748;12.630;2022-09-09T06:16:29;15.30;99.90
26107;DHT22;13866;50.748;12.630;2022-09-09T06:18:56;15.30;99.90
26107;DHT22;13866;50.748;12.630;2022-09-09T06:21:23;15.30;99.90
26107;DHT22;13866;50.748;12.630;2022-09-09T06:23:49;15.40;99.90
26107;DHT22;13866;50.748;12.630;2022-09-09T06:28:46;15.40;99.90
26107;DHT22;13866;50.748;12.630;2022-09-09T06:31:14;15.40;99.90
26107;DHT22;13866;50.748;12.630;2022-09-09T06:33:41;15.50;99.90
26107;DHT22;13866;50.748;12.630;2022-09-09T06:36:16;15.50;99.90
26107;DHT22;13866;50.748;12.630;2022-09-09T06:38:43;15.50;99.90
26107;DHT22;13866;50.748;12.630;2022-09-09T06:41:10;15.50;99.90
26107;DHT22;13866;50.748;12.630;2022-09-09T06:43:36;15.60;99.90
26107;DHT22;13866;50.748;12.630;2022-09-09T06:46:05;15.70;99.90
26107;DHT22;13866;50.748;12.630;2022-09-09T06:48:31;15.80;99.90
26107;DHT22;13866;50.748;12.630;2022-09-09T06:53:32;15.90;99.90
26107;DHT22;13866;50.748;12.630;2022-09-09T06:56:02;16.00;99.90
26107;DHT22;13866;50.748;12.630;2022-09-09T06:58:28;16.10;99.90
26107;DHT22;13866;50.748;12.630;2022-09-09T07:01:04;16.30;99.90
26107;DHT22;13866;50.748;12.630;2022-09-09T07:03:30;16.30;99.90
26107;DHT22;13866;50.748;12.630;2022-09-09T07:05:56;16.40;99.90
26107;DHT22;13866;50.748;12.630;2022-09-09T07:08:23;16.50;99.90
26107;DHT22;13866;50.748;12.630;2022-09-09T07:10:50;16.60;99.90
26107;DHT22;13866;50.748;12.630;2022-09-09T07:13:19;16.70;99.90
26107;DHT22;13866;50.748;12.630;2022-09-09T07:15:50;16.70;99.90
26107;DHT22;13866;50.748;12.630;2022-09-09T07:18:15;16.90;99.90
26107;DHT22;13866;50.748;12.630;2022-09-09T07:20:40;16.90;99.90
26107;DHT22;13866;50.748;12.630;2022-09-09T07:23:06;17.00;99.90
26107;DHT22;13866;50.748;12.630;2022-09-09T07:25:32;17.00;99.90
26107;DHT22;13866;50.748;12.630;2022-09-09T07:27:57;17.10;99.90
26107;DHT22;13866;50.748;12.630;2022-09-09T07:30:22;17.10;99.90
26107;DHT22;13866;50.748;12.630;2022-09-09T07:32:51;17.20;99.90
26107;DHT22;13866;50.748;12.630;2022-09-09T07:35:16;17.30;99.90
26107;DHT22;13866;50.748;12.630;2022-09-09T07:37:42;17.30;99.90
26107;DHT22;13866;50.748;12.630;2022-09-09T07:40:07;17.50;99.90
26107;DHT22;13866;50.748;12.630;2022-09-09T07:42:33;17.60;99.90
26107;DHT22;13866;50.748;12.630;2022-09-09T07:44:59;17.70;99.90
26107;DHT22;13866;50.748;12.630;2022-09-09T07:47:24;17.70;99.90
26107;DHT22;13866;50.748;12.630;2022-09-09T07:49:50;18.00;99.90
26107;DHT22;13866;50.748;12.630;2022-09-09T07:52:15;18.30;99.90
26107;DHT22;13866;50.748;12.630;2022-09-09T07:54:41;18.50;99.90
26107;DHT22;13866;50.748;12.630;2022-09-09T07:57:07;18.40;99.90
26107;DHT22;13866;50.748;12.630;2022-09-09T07:59:33;18.30;99.90
26107;DHT22;13866;50.748;12.630;2022-09-09T08:01:58;18.40;99.90
26107;DHT22;13866;50.748;12.630;2022-09-09T08:04:25;18.50;99.90
26107;DHT22;13866;50.748;12.630;2022-09-09T08:06:59;18.50;99.90
26107;DHT22;13866;50.748;12.630;2022-09-09T08:09:26;18.50;99.90
26107;DHT22;13866;50.748;12.630;2022-09-09T08:11:54;18.60;99.90
26107;DHT22;13866;50.748;12.630;2022-09-09T08:14:22;18.50;99.90
26107;DHT22;13866;50.748;12.630;2022-09-09T08:16:49;18.60;99.90
26107;DHT22;13866;50.748;12.630;2022-09-09T08:19:15;18.50;99.90
26107;DHT22;13866;50.748;12.630;2022-09-09T08:21:42;18.50;99.90
26107;DHT22;13866;50.748;12.630;2022-09-09T08:24:10;18.40;99.90
26107;DHT22;13866;50.748;12.630;2022-09-09T08:26:45;18.40;99.90
26107;DHT22;13866;50.748;12.630;2022-09-09T08:29:12;18.40;99.90
26107;DHT22;13866;50.748;12.630;2022-09-09T08:31:53;18.50;99.90
26107;DHT22;13866;50.748;12.630;2022-09-09T08:34:20;18.60;99.90
26107;DHT22;13866;50.748;12.630;2022-09-09T08:36:47;18.70;99.90
26107;DHT22;13866;50.748;12.630;2022-09-09T08:39:16;19.10;99.90
26107;DHT22;13866;50.748;12.630;2022-09-09T08:42:04;19.70;99.90
26107;DHT22;13866;50.748;12.630;2022-09-09T08:47:14;20.30;99.90
26107;DHT22;13866;50.748;12.630;2022-09-09T08:58:31;20.30;99.90
26107;DHT22;13866;50.748;12.630;2022-09-09T09:01:00;20.80;99.90
26107;DHT22;13866;50.748;12.630;2022-09-09T09:06:11;21.40;99.90
26107;DHT22;13866;50.748;12.630;2022-09-09T09:08:57;21.40;99.90
26107;DHT22;13866;50.748;12.630;2022-09-09T09:11:24;21.20;99.90
26107;DHT22;13866;50.748;12.630;2022-09-09T09:13:59;21.30;99.90
26107;DHT22;13866;50.748;12.630;2022-09-09T09:16:56;21.10;99.90
26107;DHT22;13866;50.748;12.630;2022-09-09T09:19:23;20.70;99.90
26107;DHT22;13866;50.748;12.630;2022-09-09T09:24:48;20.20;99.90
26107;DHT22;13866;50.748;12.630;2022-09-09T09:27:18;20.10;99.90
26107;DHT22;13866;50.748;12.630;2022-09-09T09:29:46;20.70;99.90
26107;DHT22;13866;50.748;12.630;2022-09-09T09:32:17;21.10;99.90
26107;DHT22;13866;50.748;12.630;2022-09-09T09:34:49;21.50;99.90
26107;DHT22;13866;50.748;12.630;2022-09-09T09:37:23;21.90;99.90
26107;DHT22;13866;50.748;12.630;2022-09-09T09:39:51;22.20;99.90
26107;DHT22;13866;50.748;12.630;2022-09-09T09:42:17;22.30;99.90
26107;DHT22;13866;50.748;12.630;2022-09-09T09:44:43;22.00;99.90
26107;DHT22;13866;50.748;12.630;2022-09-09T09:47:19;22.20;99.90
26107;DHT22;13866;50.748;12.630;2022-09-09T09:49:52;22.10;99.90
26107;DHT22;13866;50.748;12.630;2022-09-09T09:52:23;22.00;99.90
26107;DHT22;13866;50.748;12.630;2022-09-09T09:54:49;22.20;99.90
26107;DHT22;13866;50.748;12.630;2022-09-09T09:57:16;22.50;99.90
26107;DHT22;13866;50.748;12.630;2022-09-09T09:59:43;22.50;99.90
26107;DHT22;13866;50.748;12.630;2022-09-09T10:02:24;22.60;99.90
26107;DHT22;13866;50.748;12.630;2022-09-09T10:05:17;22.70;99.90
26107;DHT22;13866;50.748;12.630;2022-09-09T10:07:44;23.00;99.90
26107;DHT22;13866;50.748;12.630;2022-09-09T10:10:21;22.70;99.90
26107;DHT22;13866;50.748;12.630;2022-09-09T10:13:00;22.70;99.90
26107;DHT22;13866;50.748;12.630;2022-09-09T10:15:52;22.70;99.90
26107;DHT22;13866;50.748;12.630;2022-09-09T10:18:34;22.90;99.90
26107;DHT22;13866;50.748;12.630;2022-09-09T10:30:05;22.00;99.90
26107;DHT22;13866;50.748;12.630;2022-09-09T10:35:53;22.10;99.90
26107;DHT22;13866;50.748;12.630;2022-09-09T10:38:47;22.10;99.90
26107;DHT22;13866;50.748;12.630;2022-09-09T10:47:00;23.20;99.90
26107;DHT22;13866;50.748;12.630;2022-09-09T10:55:16;23.60;99.90
26107;DHT22;13866;50.748;12.630;2022-09-09T10:57:48;23.60;99.90
26107;DHT22;13866;50.748;12.630;2022-09-09T11:00:19;23.40;99.90
26107;DHT22;13866;50.748;12.630;2022-09-09T11:02:49;22.90;99.90
26107;DHT22;13866;50.748;12.630;2022-09-09T11:05:42;23.00;99.90
26107;DHT22;13866;50.748;12.630;2022-09-09T11:08:18;23.60;99.90
26107;DHT22;13866;50.748;12.630;2022-09-09T11:10:45;23.60;99.90
26107;DHT22;13866;50.748;12.630;2022-09-09T11:13:26;23.10;99.90
26107;DHT22;13866;50.748;12.630;2022-09-09T11:16:09;23.10;99.90
26107;DHT22;13866;50.748;12.630;2022-09-09T11:18:39;22.60;99.90
26107;DHT22;13866;50.748;12.630;2022-09-09T11:21:18;22.60;99.90
26107;DHT22;13866;50.748;12.630;2022-09-09T11:23:51;22.90;99.90
26107;DHT22;13866;50.748;12.630;2022-09-09T11:26:32;23.40;99.90
26107;DHT22;13866;50.748;12.630;2022-09-09T11:29:17;23.80;99.90
26107;DHT22;13866;50.748;12.630;2022-09-09T11:35:21;24.60;99.90
26107;DHT22;13866;50.748;12.630;2022-09-09T11:38:19;24.60;99.90
26107;DHT22;13866;50.748;12.630;2022-09-09T11:40:46;24.30;99.90
26107;DHT22;13866;50.748;12.630;2022-09-09T11:43:27;23.80;99.90
26107;DHT22;13866;50.748;12.630;2022-09-09T11:45:55;23.80;99.90
26107;DHT22;13866;50.748;12.630;2022-09-09T11:51:00;24.10;99.90
26107;DHT22;13866;50.748;12.630;2022-09-09T11:53:26;24.30;99.90
26107;DHT22;13866;50.748;12.630;2022-09-09T11:56:12;23.70;99.90
26107;DHT22;13866;50.748;12.630;2022-09-09T11:58:44;23.60;99.90
26107;DHT22;13866;50.748;12.630;2022-09-09T12:06:45;22.90;99.90
26107;DHT22;13866;50.748;12.630;2022-09-09T12:10:20;23.10;99.90
26107;DHT22;13866;50.748;12.630;2022-09-09T12:12:25;23.40;99.90
26107;DHT22;13866;50.748;12.630;2022-09-09T12:17:23;24.30;99.90
26107;DHT22;13866;50.748;12.630;2022-09-09T12:20:06;24.60;99.90
26107;DHT22;13866;50.748;12.630;2022-09-09T12:25:52;24.80;99.90
26107;DHT22;13866;50.748;12.630;2022-09-09T12:29:28;24.70;99.90
26107;DHT22;13866;50.748;12.630;2022-09-09T12:31:44;24.40;99.90
26107;DHT22;13866;50.748;12.630;2022-09-09T12:36:43;24.10;99.90
26107;DHT22;13866;50.748;12.630;2022-09-09T12:39:20;24.20;99.90
26107;DHT22;13866;50.748;12.630;2022-09-09T12:41:52;24.10;99.90
26107;DHT22;13866;50.748;12.630;2022-09-09T12:44:24;24.20;99.90
26107;DHT22;13866;50.748;12.630;2022-09-09T12:46:51;24.40;99.90
26107;DHT22;13866;50.748;12.630;2022-09-09T12:49:35;24.80;99.90
26107;DHT22;13866;50.748;12.630;2022-09-09T12:52:14;24.40;99.90
26107;DHT22;13866;50.748;12.630;2022-09-09T12:54:45;24.80;99.90
26107;DHT22;13866;50.748;12.630;2022-09-09T12:57:14;25.30;99.90
26107;DHT22;13866;50.748;12.630;2022-09-09T12:59:43;25.00;99.90
26107;DHT22;13866;50.748;12.630;2022-09-09T13:02:25;25.10;99.90
26107;DHT22;13866;50.748;12.630;2022-09-09T13:04:51;25.20;99.90
26107;DHT22;13866;50.748;12.630;2022-09-09T13:07:19;25.20;99.90
26107;DHT22;13866;50.748;12.630;2022-09-09T13:09:46;25.30;99.90
26107;DHT22;13866;50.748;12.630;2022-09-09T13:12:19;25.00;99.90
26107;DHT22;13866;50.748;12.630;2022-09-09T13:14:49;24.90;99.90
26107;DHT22;13866;50.748;12.630;2022-09-09T13:17:25;24.70;99.90
26107;DHT22;13866;50.748;12.630;2022-09-09T13:19:54;24.60;99.90
26107;DHT22;13866;50.748;12.630;2022-09-09T13:22:33;24.70;99.90
26107;DHT22;13866;50.748;12.630;2022-09-09T13:27:50;23.70;99.90
26107;DHT22;13866;50.748;12.630;2022-09-09T13:30:25;23.60;99.90
26107;DHT22;13866;50.748;12.630;2022-09-09T13:35:48;24.20;99.90
26107;DHT22;13866;50.748;12.630;2022-09-09T13:38:16;24.40;99.90
26107;DHT22;13866;50.748;12.630;2022-09-09T13:41:03;24.10;99.90
26107;DHT22;13866;50.748;12.630;2022-09-09T13:43:33;24.00;99.90
26107;DHT22;13866;50.748;12.630;2022-09-09T13:46:02;23.50;99.90
26107;DHT22;13866;50.748;12.630;2022-09-09T13:48:28;23.10;99.90
26107;DHT22;13866;50.748;12.630;2022-09-09T13:50:57;22.90;99.90
26107;DHT22;13866;50.748;12.630;2022-09-09T13:53:23;22.80;99.90
26107;DHT22;13866;50.748;12.630;2022-09-09T13:55:50;23.00;99.90
26107;DHT22;13866;50.748;12.630;2022-09-09T13:58:17;23.20;99.90
26107;DHT22;13866;50.748;12.630;2022-09-09T14:00:46;23.40;99.90
26107;DHT22;13866;50.748;12.630;2022-09-09T14:03:12;23.20;99.90
26107;DHT22;13866;50.748;12.630;2022-09-09T14:05:38;23.00;99.90
26107;DHT22;13866;50.748;12.630;2022-09-09T14:08:06;23.20;99.90
26107;DHT22;13866;50.748;12.630;2022-09-09T14:10:33;23.10;99.90
26107;DHT22;13866;50.748;12.630;2022-09-09T14:13:01;22.90;99.90
26107;DHT22;13866;50.748;12.630;2022-09-09T14:15:26;22.70;99.90
26107;DHT22;13866;50.748;12.630;2022-09-09T14:17:52;22.60;99.90
26107;DHT22;13866;50.748;12.630;2022-09-09T14:20:17;22.50;99.90
26107;DHT22;13866;50.748;12.630;2022-09-09T14:22:44;22.10;99.90
26107;DHT22;13866;50.748;12.630;2022-09-09T14:25:11;21.90;99.90
26107;DHT22;13866;50.748;12.630;2022-09-09T14:27:39;21.80;99.90
26107;DHT22;13866;50.748;12.630;2022-09-09T14:30:05;21.70;99.90
26107;DHT22;13866;50.748;12.630;2022-09-09T14:32:31;21.60;99.90
26107;DHT22;13866;50.748;12.630;2022-09-09T14:34:56;21.50;99.90
26107;DHT22;13866;50.748;12.630;2022-09-09T14:37:22;21.50;99.90
26107;DHT22;13866;50.748;12.630;2022-09-09T14:39:47;21.30;99.90
26107;DHT22;13866;50.748;12.630;2022-09-09T14:42:15;21.20;99.90
26107;DHT22;13866;50.748;12.630;2022-09-09T14:44:41;21.20;99.90
26107;DHT22;13866;50.748;12.630;2022-09-09T14:47:07;21.10;99.90
26107;DHT22;13866;50.748;12.630;2022-09-09T14:49:34;21.10;99.90
26107;DHT22;13866;50.748;12.630;2022-09-09T14:52:00;20.90;99.90
26107;DHT22;13866;50.748;12.630;2022-09-09T14:54:26;20.80;99.90
26107;DHT22;13866;50.748;12.630;2022-09-09T14:56:51;20.80;99.90
26107;DHT22;13866;50.748;12.630;2022-09-09T14:59:17;20.80;99.90
26107;DHT22;13866;50.748;12.630;2022-09-09T15:01:42;20.70;99.90
26107;DHT22;13866;50.748;12.630;2022-09-09T15:04:10;20.60;99.90
26107;DHT22;13866;50.748;12.630;2022-09-09T15:06:36;20.50;99.90
26107;DHT22;13866;50.748;12.630;2022-09-09T15:09:03;20.40;99.90
26107;DHT22;13866;50.748;12.630;2022-09-09T15:11:32;20.20;99.90
26107;DHT22;13866;50.748;12.630;2022-09-09T15:13:59;20.10;99.90
26107;DHT22;13866;50.748;12.630;2022-09-09T15:16:27;20.10;99.90
26107;DHT22;13866;50.748;12.630;2022-09-09T15:18:54;20.00;99.90
26107;DHT22;13866;50.748;12.630;2022-09-09T15:21:22;20.00;99.90
26107;DHT22;13866;50.748;12.630;2022-09-09T15:23:48;20.00;99.90
26107;DHT22;13866;50.748;12.630;2022-09-09T15:26:14;20.00;99.90
26107;DHT22;13866;50.748;12.630;2022-09-09T15:28:41;20.10;99.90
26107;DHT22;13866;50.748;12.630;2022-09-09T15:31:20;20.10;99.90
26107;DHT22;13866;50.748;12.630;2022-09-09T15:33:50;20.10;99.90
26107;DHT22;13866;50.748;12.630;2022-09-09T15:36:20;20.20;99.90
26107;DHT22;13866;50.748;12.630;2022-09-09T15:38:46;20.40;99.90
26107;DHT22;13866;50.748;12.630;2022-09-09T15:41:12;20.50;99.90
26107;DHT22;13866;50.748;12.630;2022-09-09T15:43:38;20.70;99.90
26107;DHT22;13866;50.748;12.630;2022-09-09T15:48:42;20.70;99.90
26107;DHT22;13866;50.748;12.630;2022-09-09T15:51:08;20.80;99.90
26107;DHT22;13866;50.748;12.630;2022-09-09T15:53:35;20.70;99.90
26107;DHT22;13866;50.748;12.630;2022-09-09T15:56:00;20.70;99.90
26107;DHT22;13866;50.748;12.630;2022-09-09T15:58:30;20.70;99.90
26107;DHT22;13866;50.748;12.630;2022-09-09T16:01:05;20.70;99.90
26107;DHT22;13866;50.748;12.630;2022-09-09T16:03:37;20.70;99.90
26107;DHT22;13866;50.748;12.630;2022-09-09T16:06:04;20.50;99.90
26107;DHT22;13866;50.748;12.630;2022-09-09T16:08:40;20.40;99.90
26107;DHT22;13866;50.748;12.630;2022-09-09T16:11:07;20.50;99.90
26107;DHT22;13866;50.748;12.630;2022-09-09T16:13:38;20.50;99.90
26107;DHT22;13866;50.748;12.630;2022-09-09T16:16:05;20.40;99.90
26107;DHT22;13866;50.748;12.630;2022-09-09T16:18:36;20.30;99.90
26107;DHT22;13866;50.748;12.630;2022-09-09T16:21:03;20.10;99.90
26107;DHT22;13866;50.748;12.630;2022-09-09T16:23:31;20.00;99.90
26107;DHT22;13866;50.748;12.630;2022-09-09T16:25:57;20.00;99.90
26107;DHT22;13866;50.748;12.630;2022-09-09T16:28:23;19.90;99.90
26107;DHT22;13866;50.748;12.630;2022-09-09T16:30:49;19.80;99.90
26107;DHT22;13866;50.748;12.630;2022-09-09T16:33:15;19.60;99.90
26107;DHT22;13866;50.748;12.630;2022-09-09T16:35:41;19.60;99.90
26107;DHT22;13866;50.748;12.630;2022-09-09T16:38:07;19.50;99.90
26107;DHT22;13866;50.748;12.630;2022-09-09T16:40:36;19.50;99.90
26107;DHT22;13866;50.748;12.630;2022-09-09T16:43:03;19.60;99.90
26107;DHT22;13866;50.748;12.630;2022-09-09T16:45:28;19.80;99.90
26107;DHT22;13866;50.748;12.630;2022-09-09T16:47:55;19.70;99.90
26107;DHT22;13866;50.748;12.630;2022-09-09T16:50:21;19.70;99.90
26107;DHT22;13866;50.748;12.630;2022-09-09T16:52:46;19.70;99.90
26107;DHT22;13866;50.748;12.630;2022-09-09T16:55:11;19.50;99.90
26107;DHT22;13866;50.748;12.630;2022-09-09T16:57:37;19.10;99.90
26107;DHT22;13866;50.748;12.630;2022-09-09T17:00:04;19.00;99.90
26107;DHT22;13866;50.748;12.630;2022-09-09T17:02:31;18.90;99.90
26107;DHT22;13866;50.748;12.630;2022-09-09T17:04:57;18.80;99.90
26107;DHT22;13866;50.748;12.630;2022-09-09T17:07:22;18.70;99.90
26107;DHT22;13866;50.748;12.630;2022-09-09T17:09:48;18.60;99.90
26107;DHT22;13866;50.748;12.630;2022-09-09T17:12:14;18.50;99.90
26107;DHT22;13866;50.748;12.630;2022-09-09T17:14:39;18.40;99.90
26107;DHT22;13866;50.748;12.630;2022-09-09T17:17:05;18.20;99.90
26107;DHT22;13866;50.748;12.630;2022-09-09T17:19:31;18.20;99.90
26107;DHT22;13866;50.748;12.630;2022-09-09T17:21:56;18.10;99.90
26107;DHT22;13866;50.748;12.630;2022-09-09T17:24:24;18.00;99.90
26107;DHT22;13866;50.748;12.630;2022-09-09T17:26:51;17.90;99.90
26107;DHT22;13866;50.748;12.630;2022-09-09T17:29:17;17.80;99.90
26107;DHT22;13866;50.748;12.630;2022-09-09T17:31:42;17.80;99.90
26107;DHT22;13866;50.748;12.630;2022-09-09T17:34:08;17.70;99.90